Time;durP1;ratioP1;P1;durP2;ratioP2;P2;SDS_P1;SDS_P2;PMS_P1;PMS_P2;Temp;Humidity;BMP_temperature;BMP_pressure;BME280_temperature;BME280_humidity;BME280_pressure;Samples;Min_cycle;Max_cycle;Signal;HPM_P1;HPM_P2
2021/01/18 00:01:24;;;;;;;18.10;5.13;;;3.50;99.90;;;;;;5087374;28;38540;-73
2021/01/18 00:03:50;;;;;;;29.77;5.93;;;3.50;99.90;;;;;;5075943;28;37325;-73
2021/01/18 00:06:18;;;;;;;19.00;5.57;;;3.50;99.90;;;;;;5082860;28;38732;-73
2021/01/18 00:08:45;;;;;;;17.30;5.63;;;3.60;99.90;;;;;;5086545;28;40035;-73
2021/01/18 00:11:12;;;;;;;17.97;5.10;;;3.60;99.90;;;;;;5080087;28;39965;-73
2021/01/18 00:13:39;;;;;;;23.43;5.93;;;3.70;99.90;;;;;;5085934;28;37084;-73
2021/01/18 00:16:05;;;;;;;21.53;6.13;;;3.60;99.90;;;;;;5077416;28;38820;-73
2021/01/18 00:18:31;;;;;;;22.40;7.10;;;3.60;99.90;;;;;;5076817;27;39502;-73
2021/01/18 00:20:58;;;;;;;24.40;7.13;;;3.50;99.90;;;;;;5057034;28;39525;-73
2021/01/18 00:23:25;;;;;;;29.80;7.10;;;3.50;99.90;;;;;;5076755;28;38126;-73
2021/01/18 00:25:51;;;;;;;21.93;6.90;;;3.50;99.90;;;;;;5087523;28;38823;-73
2021/01/18 00:28:18;;;;;;;22.90;7.07;;;3.50;99.90;;;;;;5079948;28;37911;-73
2021/01/18 00:30:44;;;;;;;28.90;7.40;;;3.60;99.90;;;;;;5072195;28;38576;-73
2021/01/18 00:33:10;;;;;;;19.33;5.80;;;3.70;99.90;;;;;;5064540;28;37776;-74
2021/01/18 00:35:36;;;;;;;22.43;5.40;;;3.70;99.90;;;;;;5088523;28;39572;-73
2021/01/18 00:38:02;;;;;;;22.23;6.57;;;3.80;99.90;;;;;;5089253;28;38504;-73
2021/01/18 00:40:28;;;;;;;26.03;6.93;;;3.80;99.90;;;;;;5065902;28;39497;-73
2021/01/18 00:42:55;;;;;;;27.77;6.90;;;3.70;99.90;;;;;;5087002;28;38268;-73
2021/01/18 00:45:23;;;;;;;20.83;7.57;;;3.70;99.90;;;;;;5093844;28;38904;-73
2021/01/18 00:47:52;;;;;;;16.87;5.20;;;3.70;99.90;;;;;;5087089;28;39412;-74
2021/01/18 00:50:20;;;;;;;22.07;6.60;;;3.80;99.90;;;;;;5063396;28;40194;-74
2021/01/18 00:52:49;;;;;;;24.70;5.37;;;3.80;99.90;;;;;;5065466;28;38027;-74
2021/01/18 00:55:20;;;;;;;23.70;5.43;;;3.80;99.90;;;;;;5070463;28;37015;-73
2021/01/18 00:57:47;;;;;;;18.90;5.37;;;3.90;99.90;;;;;;5096187;28;39758;-73
2021/01/18 01:00:15;;;;;;;15.30;4.60;;;3.90;99.90;;;;;;5078448;28;39729;-74
2021/01/18 01:02:42;;;;;;;27.43;5.90;;;3.90;99.90;;;;;;5078130;28;38757;-73
2021/01/18 01:05:11;;;;;;;21.80;6.00;;;3.90;99.90;;;;;;5063910;28;39137;-74
2021/01/18 01:07:45;;;;;;;23.33;5.90;;;3.90;99.90;;;;;;5085980;28;38940;-73
2021/01/18 01:10:17;;;;;;;21.27;5.50;;;4.00;99.90;;;;;;5070196;28;39326;-73
2021/01/18 01:12:44;;;;;;;17.88;4.15;;;3.90;99.90;;;;;;5071396;28;38102;-73
2021/01/18 01:15:11;;;;;;;22.87;4.83;;;3.90;99.90;;;;;;5071299;28;38588;-73
2021/01/18 01:17:44;;;;;;;31.67;5.73;;;3.90;99.90;;;;;;5085782;28;39217;-73
2021/01/18 01:20:15;;;;;;;20.90;5.33;;;4.00;99.90;;;;;;5089017;28;38451;-74
2021/01/18 01:22:42;;;;;;;24.80;5.30;;;4.00;99.90;;;;;;5073340;28;37445;-73
2021/01/18 01:25:13;;;;;;;21.93;5.47;;;4.10;99.90;;;;;;5064484;28;40295;-73
2021/01/18 01:27:41;;;;;;;23.70;5.00;;;4.20;99.90;;;;;;5074655;28;38388;-73
2021/01/18 01:30:13;;;;;;;18.60;5.00;;;4.20;99.90;;;;;;5091393;28;38400;-74
2021/01/18 01:32:44;;;;;;;19.13;4.97;;;4.20;99.90;;;;;;5089833;28;38020;-74
2021/01/18 01:35:11;;;;;;;31.90;5.57;;;4.20;99.90;;;;;;5081938;28;38783;-75
2021/01/18 01:37:38;;;;;;;21.77;5.30;;;4.20;99.90;;;;;;5093142;28;39196;-73
2021/01/18 01:40:09;;;;;;;26.87;5.63;;;4.20;99.90;;;;;;5097737;28;37892;-74
2021/01/18 01:42:35;;;;;;;26.00;5.50;;;4.20;99.90;;;;;;5067909;28;47235;-73
2021/01/18 01:45:13;;;;;;;28.10;6.00;;;4.10;99.90;;;;;;5073017;28;38691;-74
2021/01/18 01:47:41;;;;;;;25.17;5.53;;;4.10;99.90;;;;;;5086586;28;47227;-75
2021/01/18 01:50:20;;;;;;;30.73;5.50;;;4.10;99.90;;;;;;5089570;28;39276;-75
2021/01/18 01:53:17;;;;;;;33.43;6.57;;;4.00;99.90;;;;;;5078389;28;37062;-74
2021/01/18 01:55:44;;;;;;;20.93;5.10;;;4.00;99.90;;;;;;5084316;28;48125;-75
2021/01/18 01:58:11;;;;;;;19.87;4.80;;;4.00;99.90;;;;;;5093236;28;39468;-73
2021/01/18 02:00:39;;;;;;;30.13;5.60;;;3.90;99.90;;;;;;5082680;28;39001;-75
2021/01/18 02:03:15;;;;;;;15.27;5.10;;;3.80;99.90;;;;;;5080052;28;37279;-75
2021/01/18 02:05:43;;;;;;;31.63;5.87;;;3.80;99.90;;;;;;5092654;28;38216;-74
2021/01/18 02:08:10;;;;;;;37.03;5.90;;;3.70;99.90;;;;;;5075228;28;41550;-75
2021/01/18 02:10:37;;;;;;;25.00;5.47;;;3.80;99.90;;;;;;5081822;28;38721;-75
2021/01/18 02:13:17;;;;;;;33.17;7.10;;;3.80;99.90;;;;;;5091919;28;37138;-74
2021/01/18 02:16:07;;;;;;;27.57;5.83;;;3.80;99.90;;;;;;5093274;28;40062;-75
2021/01/18 02:18:53;;;;;;;22.10;5.33;;;4.00;99.90;;;;;;5096622;28;48334;-74
2021/01/18 02:21:38;;;;;;;36.97;7.03;;;4.10;99.90;;;;;;5081606;28;38511;-74
2021/01/18 02:24:25;;;;;;;22.60;5.53;;;4.20;99.90;;;;;;5074082;28;36015;-74
2021/01/18 02:27:22;;;;;;;29.47;6.90;;;4.20;99.90;;;;;;5090987;27;39013;-74
2021/01/18 02:30:02;;;;;;;42.10;7.73;;;4.20;99.90;;;;;;5091606;28;47413;-74
2021/01/18 02:33:12;;;;;;;27.17;6.07;;;4.20;99.90;;;;;;5089264;28;39020;-74
2021/01/18 02:36:00;;;;;;;32.80;8.47;;;4.20;99.90;;;;;;5092018;28;47138;-74
2021/01/18 02:38:55;;;;;;;32.97;7.77;;;4.20;99.90;;;;;;5075176;28;39406;-74
2021/01/18 02:41:37;;;;;;;30.33;6.63;;;4.30;99.90;;;;;;5076223;28;39878;-74
2021/01/18 02:44:17;;;;;;;26.67;6.40;;;4.30;99.90;;;;;;5081180;28;39085;-74
2021/01/18 02:46:47;;;;;;;26.37;7.03;;;4.40;99.90;;;;;;5089366;28;39226;-74
2021/01/18 02:49:16;;;;;;;30.13;6.67;;;4.40;99.90;;;;;;5086817;28;39660;-74
2021/01/18 02:51:46;;;;;;;34.07;8.43;;;4.30;99.90;;;;;;5083907;28;37474;-75
2021/01/18 02:54:12;;;;;;;35.33;9.00;;;4.40;99.90;;;;;;5092909;28;37080;-74
2021/01/18 02:56:42;;;;;;;27.47;6.53;;;4.40;99.90;;;;;;5085697;28;35645;-74
2021/01/18 02:59:11;;;;;;;29.47;8.07;;;4.40;99.90;;;;;;5084546;28;39907;-74
2021/01/18 03:01:58;;;;;;;38.20;7.97;;;4.40;99.90;;;;;;5080876;28;39674;-74
2021/01/18 03:04:36;;;;;;;29.23;8.07;;;4.40;99.90;;;;;;5088469;28;39655;-74
2021/01/18 03:07:29;;;;;;;33.60;7.50;;;4.40;99.90;;;;;;5092005;28;36816;-75
2021/01/18 03:10:17;;;;;;;;;;;4.40;99.90;;;;;;5101633;28;39954;-73
2021/01/18 03:12:59;;;;;;;36.50;8.83;;;4.50;99.90;;;;;;5093708;28;48627;-74
2021/01/18 03:15:28;;;;;;;31.83;7.32;;;4.50;99.90;;;;;;5074918;28;39135;-74
2021/01/18 03:17:58;;;;;;;34.57;8.53;;;4.50;99.90;;;;;;5066839;28;38213;-74
2021/01/18 03:20:25;;;;;;;25.30;7.40;;;4.40;99.90;;;;;;5077016;28;36015;-75
2021/01/18 03:22:51;;;;;;;41.83;8.10;;;4.30;99.90;;;;;;5086570;28;40134;-74
2021/01/18 03:25:18;;;;;;;28.23;7.63;;;4.30;99.90;;;;;;5079157;28;39342;-74
2021/01/18 03:27:52;;;;;;;28.40;7.57;;;4.30;99.90;;;;;;5091326;28;37310;-74
2021/01/18 03:30:20;;;;;;;33.30;7.07;;;4.30;99.90;;;;;;5098306;28;40186;-74
2021/01/18 03:32:51;;;;;;;36.13;8.23;;;4.30;99.90;;;;;;5086402;28;39673;-74
2021/01/18 03:35:17;;;;;;;33.23;8.57;;;4.40;99.90;;;;;;5090629;28;38778;-73
2021/01/18 03:37:51;;;;;;;27.10;7.93;;;4.40;99.90;;;;;;5085419;27;37195;-74
2021/01/18 03:40:17;;;;;;;29.13;8.00;;;4.40;99.90;;;;;;5072911;28;38682;-74
2021/01/18 03:42:43;;;;;;;36.63;9.70;;;4.40;99.90;;;;;;5071968;28;40363;-74
2021/01/18 03:45:10;;;;;;;35.17;8.90;;;4.50;99.90;;;;;;5079178;28;38589;-73
2021/01/18 03:47:36;;;;;;;31.10;8.37;;;4.60;99.90;;;;;;5077204;28;38880;-73
2021/01/18 03:50:02;;;;;;;45.17;9.37;;;4.60;99.90;;;;;;5070105;28;40404;-73
2021/01/18 03:52:29;;;;;;;37.87;9.47;;;4.60;99.90;;;;;;5078028;28;39528;-73
2021/01/18 03:54:54;;;;;;;30.73;7.77;;;4.60;99.90;;;;;;5076785;28;41586;-73
2021/01/18 03:57:21;;;;;;;43.90;10.03;;;4.60;99.90;;;;;;5080398;28;36938;-73
2021/01/18 03:59:47;;;;;;;30.70;8.23;;;4.60;99.90;;;;;;5089191;28;39379;-73
2021/01/18 04:02:13;;;;;;;24.80;7.37;;;4.60;99.90;;;;;;5080824;28;38683;-74
2021/01/18 04:04:39;;;;;;;32.17;9.13;;;4.60;99.90;;;;;;5071590;28;37473;-74
2021/01/18 04:07:09;;;;;;;25.27;8.17;;;4.60;99.90;;;;;;5073908;28;36979;-74
2021/01/18 04:09:35;;;;;;;36.37;7.77;;;4.60;99.90;;;;;;5068186;28;39926;-74
2021/01/18 04:12:03;;;;;;;34.37;7.43;;;4.60;99.90;;;;;;5067621;28;38036;-74
2021/01/18 04:14:30;;;;;;;23.63;7.93;;;4.60;99.90;;;;;;5065686;28;38499;-74
2021/01/18 04:16:57;;;;;;;25.00;7.00;;;4.50;99.90;;;;;;5062743;28;36242;-74
2021/01/18 04:19:23;;;;;;;32.00;7.13;;;4.40;99.90;;;;;;5089569;27;37705;-74
2021/01/18 04:21:49;;;;;;;28.73;7.60;;;4.40;99.90;;;;;;5085790;28;39394;-74
2021/01/18 04:24:15;;;;;;;26.40;7.43;;;4.30;99.90;;;;;;5085352;28;38374;-73
2021/01/18 04:26:41;;;;;;;31.13;8.67;;;4.30;99.90;;;;;;5081653;28;37778;-74
2021/01/18 04:29:07;;;;;;;32.97;9.70;;;4.30;99.90;;;;;;5080683;28;38686;-74
2021/01/18 04:31:39;;;;;;;35.57;9.50;;;4.30;99.90;;;;;;5062718;28;39394;-74
2021/01/18 04:34:05;;;;;;;34.37;7.50;;;4.30;99.90;;;;;;5077517;28;38418;-74
2021/01/18 04:36:36;;;;;;;32.10;8.23;;;4.20;99.90;;;;;;5065841;28;38099;-73
2021/01/18 04:39:07;;;;;;;40.67;8.93;;;4.20;99.90;;;;;;5069790;28;37584;-74
2021/01/18 04:41:36;;;;;;;31.57;7.40;;;4.20;99.90;;;;;;5073229;28;38675;-74
2021/01/18 04:44:06;;;;;;;24.63;7.23;;;4.20;99.90;;;;;;5075043;28;39205;-74
2021/01/18 04:46:38;;;;;;;37.30;7.87;;;4.30;99.90;;;;;;5073608;28;37214;-74
2021/01/18 04:49:05;;;;;;;28.65;7.47;;;4.30;99.90;;;;;;5084499;27;38474;-74
2021/01/18 04:51:41;;;;;;;31.87;8.27;;;4.30;99.90;;;;;;5082517;28;38558;-74
2021/01/18 04:54:30;;;;;;;37.43;7.83;;;4.40;99.90;;;;;;5086008;27;38359;-74
2021/01/18 04:57:12;;;;;;;27.03;8.43;;;4.50;99.90;;;;;;5064562;28;38192;-74
2021/01/18 04:59:40;;;;;;;34.60;8.32;;;4.60;99.90;;;;;;5052109;28;47336;-72
2021/01/18 05:02:12;;;;;;;37.30;9.23;;;4.70;99.90;;;;;;5085797;28;39471;-73
2021/01/18 05:04:40;;;;;;;39.63;8.60;;;4.80;99.90;;;;;;5078547;28;38595;-73
2021/01/18 05:07:28;;;;;;;28.10;7.60;;;4.80;99.90;;;;;;5074502;28;38615;-73
2021/01/18 05:10:09;;;;;;;46.47;9.00;;;4.90;99.90;;;;;;5082996;28;40083;-73
2021/01/18 05:12:43;;;;;;;27.80;8.03;;;4.90;99.90;;;;;;5090586;28;46811;-73
2021/01/18 05:15:13;;;;;;;29.30;7.67;;;4.80;99.90;;;;;;5075911;28;41526;-73
2021/01/18 05:17:43;;;;;;;37.87;8.10;;;4.90;99.90;;;;;;5079576;28;36405;-73
2021/01/18 05:20:19;;;;;;;33.10;8.33;;;4.80;99.90;;;;;;5079727;28;39723;-73
2021/01/18 05:22:50;;;;;;;28.27;7.33;;;4.80;99.90;;;;;;5067939;28;39412;-73
2021/01/18 05:25:17;;;;;;;23.00;6.30;;;4.80;99.90;;;;;;5065732;28;38792;-73
2021/01/18 05:27:59;;;;;;;28.10;6.83;;;4.80;99.90;;;;;;5087716;28;37055;-73
2021/01/18 05:30:27;;;;;;;26.15;7.53;;;4.80;99.90;;;;;;5081712;28;40180;-73
2021/01/18 05:33:09;;;;;;;33.30;6.67;;;4.80;99.90;;;;;;5090748;28;41135;-73
2021/01/18 05:35:38;;;;;;;31.77;6.73;;;4.80;99.90;;;;;;5090352;28;47271;-73
2021/01/18 05:38:10;;;;;;;27.53;7.80;;;4.80;99.90;;;;;;5091272;28;38637;-74
2021/01/18 05:40:48;;;;;;;36.25;7.35;;;4.70;99.90;;;;;;5074101;28;39112;-73
2021/01/18 05:43:15;;;;;;;40.23;8.47;;;4.70;99.90;;;;;;5085910;28;39377;-73
2021/01/18 05:45:43;;;;;;;32.80;8.00;;;4.70;99.90;;;;;;5081680;28;40337;-74
2021/01/18 05:48:11;;;;;;;31.60;6.77;;;4.70;99.90;;;;;;5082143;28;35903;-73
2021/01/18 05:50:38;;;;;;;31.20;7.20;;;4.80;99.90;;;;;;5079250;28;36393;-73
2021/01/18 05:53:30;;;;;;;31.47;6.17;;;4.80;99.90;;;;;;5061055;28;39233;-73
2021/01/18 05:56:14;;;;;;;33.87;5.33;;;4.80;99.90;;;;;;5078917;28;38623;-73
2021/01/18 05:58:40;;;;;;;33.63;6.93;;;4.80;99.90;;;;;;5091028;28;47657;-73
2021/01/18 06:01:06;;;;;;;29.33;5.90;;;4.90;99.90;;;;;;5082885;28;38934;-74
2021/01/18 06:03:33;;;;;;;37.77;6.10;;;4.90;99.90;;;;;;5092253;28;37015;-74
2021/01/18 06:05:59;;;;;;;29.07;5.70;;;4.80;99.90;;;;;;5092545;28;39270;-73
2021/01/18 06:08:26;;;;;;;31.80;6.03;;;4.80;99.90;;;;;;5063631;28;38001;-73
2021/01/18 06:10:55;;;;;;;29.23;5.30;;;4.80;99.90;;;;;;5084933;28;39853;-73
2021/01/18 06:13:28;;;;;;;29.27;5.13;;;4.80;99.90;;;;;;5088322;28;38163;-74
2021/01/18 06:16:02;;;;;;;33.10;7.20;;;4.70;99.90;;;;;;5087381;28;38648;-73
2021/01/18 06:18:33;;;;;;;34.80;5.27;;;4.70;99.90;;;;;;5087545;28;47218;-73
2021/01/18 06:21:01;;;;;;;22.13;5.17;;;4.70;99.90;;;;;;5089613;28;38913;-72
2021/01/18 06:23:27;;;;;;;24.07;5.63;;;4.70;99.90;;;;;;5088806;28;47502;-74
2021/01/18 06:25:55;;;;;;;28.67;6.10;;;4.70;99.90;;;;;;5094794;28;38520;-73
2021/01/18 06:28:25;;;;;;;32.73;6.47;;;4.60;99.90;;;;;;5083009;28;38007;-74
2021/01/18 06:30:56;;;;;;;35.90;6.60;;;4.60;99.90;;;;;;5076043;28;40960;-72
2021/01/18 06:33:42;;;;;;;33.37;5.57;;;4.60;99.90;;;;;;5080330;28;38622;-73
2021/01/18 06:36:21;;;;;;;30.63;6.57;;;4.60;99.90;;;;;;5092320;28;38390;-72
2021/01/18 06:38:56;;;;;;;31.00;6.53;;;4.60;99.90;;;;;;5077783;28;37538;-75
2021/01/18 06:41:30;;;;;;;27.07;6.37;;;4.50;99.90;;;;;;5059646;28;39651;-73
2021/01/18 06:43:57;;;;;;;31.93;6.50;;;4.60;99.90;;;;;;5057293;28;38289;-73
2021/01/18 06:46:27;;;;;;;28.83;7.33;;;4.60;99.90;;;;;;5051783;28;38536;-73
2021/01/18 06:48:54;;;;;;;35.97;9.60;;;4.50;99.90;;;;;;5054688;28;37470;-73
2021/01/18 06:51:22;;;;;;;32.03;5.97;;;4.50;99.90;;;;;;5079513;27;39604;-73
2021/01/18 06:53:50;;;;;;;38.40;7.27;;;4.60;99.90;;;;;;5077676;28;38616;-74
2021/01/18 06:56:22;;;;;;;27.10;6.17;;;4.60;99.90;;;;;;5074925;28;39315;-73
2021/01/18 06:59:02;;;;;;;27.58;7.05;;;4.60;99.90;;;;;;5079470;28;37945;-73
2021/01/18 07:01:37;;;;;;;30.33;8.17;;;4.60;99.90;;;;;;5087054;28;48686;-73
2021/01/18 07:04:10;;;;;;;26.07;7.23;;;4.70;99.90;;;;;;5083502;28;40551;-75
2021/01/18 07:06:40;;;;;;;38.10;8.80;;;4.70;99.90;;;;;;5085795;28;38543;-72
2021/01/18 07:09:10;;;;;;;38.07;8.27;;;4.70;99.90;;;;;;5067777;28;39058;-72
2021/01/18 07:11:37;;;;;;;27.63;7.80;;;4.70;99.90;;;;;;5066884;28;38525;-75
2021/01/18 07:14:08;;;;;;;39.20;8.83;;;4.70;99.90;;;;;;5081007;27;37126;-73
2021/01/18 07:16:34;;;;;;;42.40;8.63;;;4.80;99.90;;;;;;5057824;28;38106;-73
2021/01/18 07:19:04;;;;;;;43.80;9.93;;;4.80;99.90;;;;;;5083010;28;37354;-74
2021/01/18 07:22:12;;;;;;;35.50;8.30;;;4.80;99.90;;;;;;5086454;28;48713;-74
2021/01/18 07:24:47;;;;;;;36.67;8.77;;;4.80;99.90;;;;;;5054434;28;48574;-74
2021/01/18 07:27:21;;;;;;;37.70;9.63;;;4.80;99.90;;;;;;5068895;28;39867;-75
2021/01/18 07:29:47;;;;;;;32.30;8.77;;;4.90;99.90;;;;;;5075654;28;37873;-74
2021/01/18 07:32:13;;;;;;;29.03;7.87;;;4.90;99.90;;;;;;5097113;28;39819;-74
2021/01/18 07:34:40;;;;;;;34.23;8.13;;;4.90;99.90;;;;;;5087193;28;38798;-74
2021/01/18 07:37:10;;;;;;;32.10;8.20;;;4.90;99.90;;;;;;5088603;28;38391;-73
2021/01/18 07:39:39;;;;;;;36.43;8.63;;;4.90;99.90;;;;;;5062016;28;39794;-73
2021/01/18 07:42:26;;;;;;;37.30;8.00;;;4.90;99.90;;;;;;5090569;28;38969;-73
2021/01/18 07:45:10;;;;;;;35.73;7.90;;;4.90;99.90;;;;;;5066305;28;37945;-73
2021/01/18 07:47:57;;;;;;;37.43;8.83;;;4.90;99.90;;;;;;5079100;28;50588;-73
2021/01/18 07:50:42;;;;;;;31.90;7.60;;;4.90;99.90;;;;;;5050817;28;37934;-73
2021/01/18 07:53:10;;;;;;;35.43;8.63;;;4.90;99.90;;;;;;5067726;28;41065;-72
2021/01/18 07:55:39;;;;;;;29.40;7.67;;;4.90;99.90;;;;;;5071526;28;39204;-73
2021/01/18 07:58:20;;;;;;;30.07;6.83;;;4.80;99.90;;;;;;5065293;28;40305;-73
2021/01/18 08:00:48;;;;;;;31.07;7.97;;;4.90;99.90;;;;;;5072930;28;38134;-73
2021/01/18 08:03:14;;;;;;;41.30;7.80;;;4.80;99.90;;;;;;5082881;28;38782;-73
2021/01/18 08:05:41;;;;;;;29.93;8.17;;;4.80;99.90;;;;;;5077363;28;38895;-73
2021/01/18 08:08:28;;;;;;;35.07;8.73;;;4.80;99.90;;;;;;5076950;28;38347;-73
2021/01/18 08:10:57;;;;;;;29.07;7.30;;;4.80;99.90;;;;;;5074322;28;36516;-74
2021/01/18 08:13:41;;;;;;;26.03;6.70;;;4.80;99.90;;;;;;5072544;28;38970;-74
2021/01/18 08:16:21;;;;;;;33.63;7.63;;;4.80;99.90;;;;;;5057874;28;37965;-74
2021/01/18 08:19:16;;;;;;;27.60;8.00;;;4.80;99.90;;;;;;5057947;28;39078;-73
2021/01/18 08:21:47;;;;;;;26.53;7.27;;;4.90;99.90;;;;;;5086857;28;48515;-73
2021/01/18 08:24:26;;;;;;;31.20;8.57;;;4.80;99.90;;;;;;5088289;28;39963;-73
2021/01/18 08:27:03;;;;;;;37.17;8.53;;;4.90;99.90;;;;;;5091548;27;39030;-74
2021/01/18 08:29:50;;;;;;;33.90;8.00;;;4.90;99.90;;;;;;5090060;28;48454;-74
2021/01/18 08:32:22;;;;;;;34.47;8.07;;;4.90;99.90;;;;;;5077729;28;37258;-73
2021/01/18 08:34:50;;;;;;;22.17;7.03;;;4.90;99.90;;;;;;5073108;28;40981;-74
2021/01/18 08:37:16;;;;;;;26.57;7.90;;;5.00;99.90;;;;;;5078290;28;39559;-73
2021/01/18 08:39:58;;;;;;;25.80;8.00;;;5.00;99.90;;;;;;5076452;28;39412;-74
2021/01/18 08:42:33;;;;;;;26.95;7.07;;;5.00;99.90;;;;;;5081942;28;36961;-74
2021/01/18 08:45:07;;;;;;;27.13;7.87;;;5.00;99.90;;;;;;5059828;28;40542;-74
2021/01/18 08:47:39;;;;;;;30.13;8.10;;;5.10;99.90;;;;;;5072704;28;48129;-74
2021/01/18 08:50:20;;;;;;;33.10;7.25;;;5.10;99.90;;;;;;5070471;27;38073;-74
2021/01/18 08:52:48;;;;;;;28.87;6.83;;;5.20;99.90;;;;;;5078676;28;38041;-74
2021/01/18 08:55:37;;;;;;;29.23;7.00;;;5.20;99.90;;;;;;5098484;28;38954;-73
2021/01/18 08:58:04;;;;;;;23.77;6.50;;;5.20;99.90;;;;;;5077213;28;39449;-74
2021/01/18 09:00:45;;;;;;;37.60;7.23;;;5.30;99.90;;;;;;5099532;28;38216;-73
2021/01/18 09:03:19;;;;;;;25.23;6.37;;;5.30;99.90;;;;;;5078216;28;36992;-74
2021/01/18 09:05:45;;;;;;;29.07;6.80;;;5.30;99.90;;;;;;5079836;28;40819;-76
2021/01/18 09:08:14;;;;;;;29.90;6.33;;;5.40;99.90;;;;;;5080288;28;38953;-74
2021/01/18 09:10:40;;;;;;;29.27;6.43;;;5.40;99.90;;;;;;5077168;28;39221;-75
2021/01/18 09:13:07;;;;;;;21.10;5.40;;;5.40;99.90;;;;;;5063029;28;37094;-74
2021/01/18 09:15:35;;;;;;;20.77;6.10;;;5.40;99.90;;;;;;5061467;28;39146;-74
2021/01/18 09:18:11;;;;;;;31.43;6.27;;;5.50;99.90;;;;;;5090359;28;39882;-75
2021/01/18 09:20:39;;;;;;;20.23;5.67;;;5.50;99.90;;;;;;5077096;28;39093;-75
2021/01/18 09:23:07;;;;;;;20.07;5.33;;;5.50;99.90;;;;;;5071377;28;37402;-76
2021/01/18 09:25:34;;;;;;;22.23;5.70;;;5.60;99.90;;;;;;5057536;28;40846;-74
2021/01/18 09:28:08;;;;;;;32.97;6.27;;;5.60;99.90;;;;;;5069656;28;38960;-75
2021/01/18 09:30:35;;;;;;;20.10;5.27;;;5.70;99.90;;;;;;5073790;28;49337;-75
2021/01/18 09:33:06;;;;;;;30.13;8.50;;;5.70;99.90;;;;;;5056086;28;37729;-74
2021/01/18 09:35:37;;;;;;;23.50;5.33;;;5.70;99.90;;;;;;5062636;28;38875;-75
2021/01/18 09:38:05;;;;;;;26.00;5.63;;;5.80;99.90;;;;;;5075966;28;40585;-75
2021/01/18 09:40:36;;;;;;;21.07;6.40;;;5.80;99.90;;;;;;5075301;28;39558;-75
2021/01/18 09:43:04;;;;;;;25.53;6.13;;;5.80;99.90;;;;;;5075248;28;37742;-75
2021/01/18 09:45:30;;;;;;;19.63;5.57;;;5.80;99.90;;;;;;5081834;28;39735;-74
2021/01/18 09:48:05;;;;;;;25.50;5.40;;;5.80;99.90;;;;;;5091121;28;39456;-74
2021/01/18 09:50:34;;;;;;;24.83;7.40;;;5.90;99.90;;;;;;5086880;28;47215;-75
2021/01/18 09:53:05;;;;;;;25.87;6.00;;;5.90;99.90;;;;;;5087760;28;38215;-74
2021/01/18 09:55:36;;;;;;;22.83;5.80;;;5.90;99.90;;;;;;5033812;28;47387;-74
2021/01/18 09:58:12;;;;;;;33.87;6.63;;;5.90;99.90;;;;;;5078972;28;38843;-74
2021/01/18 10:00:42;;;;;;;28.20;6.80;;;5.90;99.90;;;;;;5091861;28;38162;-74
2021/01/18 10:03:09;;;;;;;30.17;6.23;;;5.90;99.90;;;;;;5090714;28;38133;-74
2021/01/18 10:05:43;;;;;;;22.73;5.67;;;6.00;99.90;;;;;;5085956;28;40740;-74
2021/01/18 10:08:17;;;;;;;25.10;6.47;;;6.00;99.90;;;;;;5095339;28;38847;-74
2021/01/18 10:10:49;;;;;;;28.10;6.07;;;6.00;99.90;;;;;;5095399;28;37534;-75
2021/01/18 10:13:23;;;;;;;26.97;5.40;;;6.10;99.90;;;;;;5086177;28;37272;-75
2021/01/18 10:15:50;;;;;;;21.77;5.53;;;6.20;99.90;;;;;;5091566;28;38738;-74
2021/01/18 10:18:38;;;;;;;32.47;6.17;;;6.30;99.90;;;;;;5088950;27;38941;-74
2021/01/18 10:21:05;;;;;;;24.17;5.30;;;6.20;99.90;;;;;;5088262;28;39713;-75
2021/01/18 10:23:36;;;;;;;25.73;5.73;;;6.20;99.90;;;;;;5093114;28;37291;-75
2021/01/18 10:26:27;;;;;;;23.43;5.60;;;6.20;99.90;;;;;;5069065;28;38363;-74
2021/01/18 10:28:59;;;;;;;25.13;6.50;;;6.30;99.90;;;;;;5094134;28;39541;-75
2021/01/18 10:31:29;;;;;;;20.93;6.03;;;6.30;99.90;;;;;;5081729;28;37583;-75
2021/01/18 10:34:11;;;;;;;25.87;4.67;;;6.40;99.90;;;;;;5089201;27;38769;-74
2021/01/18 10:36:39;;;;;;;23.55;5.53;;;6.40;99.90;;;;;;5076391;28;47781;-74
2021/01/18 10:39:05;;;;;;;21.47;5.10;;;6.40;99.90;;;;;;5091672;28;39364;-75
2021/01/18 10:41:34;;;;;;;26.53;5.10;;;6.50;99.90;;;;;;5080371;28;38470;-74
2021/01/18 10:44:07;;;;;;;20.47;5.37;;;6.50;99.90;;;;;;5073801;28;37616;-73
2021/01/18 10:46:33;;;;;;;16.25;4.63;;;6.60;99.90;;;;;;5073918;28;48271;-74
2021/01/18 10:49:01;;;;;;;25.73;4.83;;;6.60;99.90;;;;;;5072676;28;37743;-76
2021/01/18 10:51:28;;;;;;;24.70;4.40;;;6.70;99.90;;;;;;5061308;28;46833;-75
2021/01/18 10:54:01;;;;;;;26.93;5.00;;;6.70;99.90;;;;;;5091842;28;37157;-75
2021/01/18 10:56:32;;;;;;;24.80;5.23;;;6.80;99.90;;;;;;5059083;28;48256;-73
2021/01/18 10:58:58;;;;;;;27.77;4.90;;;6.80;99.90;;;;;;5071376;28;38996;-75
2021/01/18 11:01:25;;;;;;;22.53;4.53;;;6.80;99.90;;;;;;5092543;28;38329;-75
2021/01/18 11:03:52;;;;;;;21.67;4.80;;;6.90;99.90;;;;;;5090670;28;37309;-74
2021/01/18 11:06:20;;;;;;;19.90;4.03;;;6.90;99.90;;;;;;5083196;28;38644;-73
2021/01/18 11:08:53;;;;;;;22.10;4.00;;;7.00;99.90;;;;;;5077039;28;39640;-74
2021/01/18 11:11:27;;;;;;;21.10;4.03;;;7.10;99.90;;;;;;5079943;28;39462;-72
2021/01/18 11:14:04;;;;;;;24.77;4.43;;;7.10;99.90;;;;;;5093918;28;37909;-74
2021/01/18 11:16:31;;;;;;;24.10;5.20;;;7.20;99.90;;;;;;5081117;27;47459;-74
2021/01/18 11:19:01;;;;;;;19.20;4.20;;;7.20;99.90;;;;;;5077560;28;38833;-74
2021/01/18 11:21:28;;;;;;;22.00;4.27;;;7.00;99.90;;;;;;5085965;27;20041;-74
2021/01/18 11:23:55;;;;;;;20.43;4.27;;;7.00;99.90;;;;;;5092254;28;36679;-76
2021/01/18 11:26:22;;;;;;;28.43;4.80;;;7.00;99.90;;;;;;5072794;28;38092;-74
2021/01/18 11:28:48;;;;;;;27.63;5.50;;;6.90;99.90;;;;;;5089245;28;39379;-74
2021/01/18 11:31:14;;;;;;;30.87;5.07;;;6.90;99.90;;;;;;5082970;28;41067;-75
2021/01/18 11:33:41;;;;;;;38.20;5.43;;;6.90;99.90;;;;;;5102240;28;37048;-77
2021/01/18 11:36:07;;;;;;;23.80;5.70;;;6.70;99.90;;;;;;5089400;28;38920;-75
2021/01/18 11:38:33;;;;;;;33.70;4.97;;;6.70;99.90;;;;;;5090950;28;38867;-75
2021/01/18 11:40:59;;;;;;;21.07;5.00;;;6.60;99.90;;;;;;5086657;28;38461;-75
2021/01/18 11:43:25;;;;;;;25.20;4.40;;;6.60;99.90;;;;;;5085508;28;38257;-75
2021/01/18 11:45:51;;;;;;;24.63;6.00;;;6.60;99.90;;;;;;5074635;28;37900;-76
2021/01/18 11:48:17;;;;;;;19.23;4.10;;;6.70;99.90;;;;;;5063326;28;38766;-75
2021/01/18 11:50:43;;;;;;;21.40;4.13;;;6.80;99.90;;;;;;5076190;28;39194;-75
2021/01/18 11:53:11;;;;;;;19.13;4.60;;;6.90;99.90;;;;;;5056187;28;38988;-74
2021/01/18 11:55:38;;;;;;;25.90;4.57;;;7.00;99.90;;;;;;5065053;28;38094;-73
2021/01/18 11:58:05;;;;;;;24.73;4.47;;;7.00;99.90;;;;;;5057390;28;39822;-73
2021/01/18 12:00:31;;;;;;;18.13;4.30;;;7.10;99.90;;;;;;5066886;28;38749;-73
2021/01/18 12:02:59;;;;;;;17.53;4.07;;;7.10;99.90;;;;;;5085433;28;37138;-73
2021/01/18 12:05:29;;;;;;;25.07;4.20;;;7.10;99.90;;;;;;5079637;28;38877;-73
2021/01/18 12:07:56;;;;;;;27.70;4.03;;;7.10;99.90;;;;;;5075370;28;39645;-73
2021/01/18 12:10:24;;;;;;;21.13;4.03;;;7.20;99.90;;;;;;5078506;28;38215;-73
2021/01/18 12:12:50;;;;;;;27.90;3.73;;;7.20;99.90;;;;;;5075552;28;37766;-73
2021/01/18 12:15:17;;;;;;;24.20;3.93;;;7.20;99.90;;;;;;5081858;28;39541;-73
2021/01/18 12:17:43;;;;;;;25.97;4.13;;;7.20;99.90;;;;;;5073406;28;38037;-75
2021/01/18 12:20:12;;;;;;;25.50;4.03;;;7.20;99.90;;;;;;5081052;28;38455;-75
2021/01/18 12:22:38;;;;;;;15.97;3.67;;;7.20;99.90;;;;;;5060509;28;37522;-75
2021/01/18 12:25:05;;;;;;;26.03;3.87;;;7.20;99.90;;;;;;5074796;28;37954;-75
2021/01/18 12:27:32;;;;;;;20.63;3.40;;;7.20;99.90;;;;;;5076607;28;37788;-74
2021/01/18 12:29:58;;;;;;;16.37;2.77;;;7.20;99.90;;;;;;5078081;28;38390;-75
2021/01/18 12:32:24;;;;;;;20.23;3.73;;;7.20;99.90;;;;;;5067725;28;37837;-74
2021/01/18 12:34:51;;;;;;;28.23;4.20;;;7.30;99.90;;;;;;5085587;28;38358;-75
2021/01/18 12:37:17;;;;;;;13.57;2.80;;;7.30;99.90;;;;;;5091506;28;38733;-74
2021/01/18 12:39:43;;;;;;;19.90;3.17;;;7.50;99.90;;;;;;5081323;28;37552;-74
2021/01/18 12:42:10;;;;;;;16.30;3.50;;;7.50;99.90;;;;;;5088361;27;38655;-75
2021/01/18 12:44:36;;;;;;;20.57;2.73;;;7.50;99.90;;;;;;5060318;28;40203;-74
2021/01/18 12:47:06;;;;;;;20.70;3.40;;;7.50;99.90;;;;;;5087799;28;41113;-75
2021/01/18 12:49:33;;;;;;;15.23;2.80;;;7.70;99.90;;;;;;5077087;28;38789;-75
2021/01/18 12:51:59;;;;;;;17.50;2.83;;;7.70;99.90;;;;;;5081095;28;37287;-75
2021/01/18 12:54:25;;;;;;;16.67;2.77;;;7.70;99.90;;;;;;5052153;28;40605;-74
2021/01/18 12:56:55;;;;;;;17.40;2.90;;;7.80;99.90;;;;;;5072969;28;38811;-73
2021/01/18 12:59:21;;;;;;;20.47;3.60;;;7.70;99.90;;;;;;5089199;28;40583;-74
2021/01/18 13:01:47;;;;;;;21.83;3.03;;;7.60;99.90;;;;;;5075362;28;38261;-74
2021/01/18 13:04:14;;;;;;;22.63;2.73;;;7.60;99.90;;;;;;5080779;28;40046;-75
2021/01/18 13:06:42;;;;;;;22.43;4.00;;;7.50;99.90;;;;;;5077613;28;38565;-75
2021/01/18 13:09:16;;;;;;;21.83;2.50;;;7.50;99.90;;;;;;5082529;28;38953;-75